createdAt,value
2022-12-03T00:00:23.742Z,101127.31
2022-12-03T00:02:51.928Z,101111.50
2022-12-03T00:05:22.817Z,101124.78
2022-12-03T00:07:50.928Z,101131.03
2022-12-03T00:10:22.401Z,101123.00
2022-12-03T00:12:50.454Z,101100.66
2022-12-03T00:15:18.726Z,101130.06
2022-12-03T00:17:46.750Z,101094.75
2022-12-03T00:20:20.157Z,101127.50
2022-12-03T00:22:48.300Z,101140.56
2022-12-03T00:25:16.844Z,101033.53
2022-12-03T00:27:46.281Z,101084.94
2022-12-03T00:30:15.760Z,101094.13
2022-12-03T00:32:43.936Z,101003.91
2022-12-03T00:35:12.155Z,101141.16
2022-12-03T00:37:40.316Z,100937.22
2022-12-03T00:40:12.547Z,101139.09
2022-12-03T00:42:40.683Z,101134.97
2022-12-03T00:45:11.373Z,101102.94
2022-12-03T00:47:39.325Z,101126.09
2022-12-03T00:50:08.570Z,101116.28
2022-12-03T00:52:36.799Z,101059.53
2022-12-03T00:55:05.412Z,101131.34
2022-12-03T00:57:33.459Z,101078.06
2022-12-03T01:00:01.854Z,101108.00
2022-12-03T01:02:32.619Z,101132.03
2022-12-03T01:05:00.992Z,101116.31
2022-12-03T01:07:29.247Z,101078.75
2022-12-03T01:09:57.692Z,101131.31
2022-12-03T01:12:25.687Z,101133.88
2022-12-03T01:14:53.924Z,100956.72
2022-12-03T01:17:22.399Z,101133.06
2022-12-03T01:19:52.686Z,101110.09
2022-12-03T01:22:20.764Z,101126.72
2022-12-03T01:24:48.720Z,101118.91
2022-12-03T01:27:19.460Z,101138.13
2022-12-03T01:29:47.452Z,101080.50
2022-12-03T01:32:18.131Z,100994.16
2022-12-03T01:34:47.214Z,101128.50
2022-12-03T01:37:19.409Z,101138.53
2022-12-03T01:39:47.417Z,101138.22
2022-12-03T01:42:18.743Z,101146.13
2022-12-03T01:44:47.735Z,101112.44
2022-12-03T01:47:19.483Z,101142.50
2022-12-03T01:49:51.268Z,101141.81
2022-12-03T01:52:23.353Z,101106.47
2022-12-03T01:54:53.750Z,101147.28
2022-12-03T01:57:25.642Z,101139.38
2022-12-03T01:59:55.308Z,101141.31
2022-12-03T02:02:26.228Z,101132.16
2022-12-03T02:04:55.248Z,101118.75
2022-12-03T02:07:27.858Z,101131.16
2022-12-03T02:09:59.057Z,101123.81
2022-12-03T02:12:31.526Z,101090.16
2022-12-03T02:15:00.416Z,101145.19
2022-12-03T02:17:30.226Z,101146.16
2022-12-03T02:19:59.079Z,101131.66
2022-12-03T02:22:39.925Z,101143.06
2022-12-03T02:25:13.401Z,101140.53
2022-12-03T02:27:41.475Z,101139.69
2022-12-03T02:30:10.860Z,101142.34
2022-12-03T02:32:39.291Z,101137.84
2022-12-03T02:35:08.152Z,101136.81
2022-12-03T02:37:38.762Z,101001.13
2022-12-03T02:40:11.861Z,101117.38
2022-12-03T02:42:44.898Z,101135.00
2022-12-03T02:45:16.490Z,101126.28
2022-12-03T02:47:47.340Z,101092.22
2022-12-03T02:50:18.692Z,101141.47
2022-12-03T02:52:48.287Z,101140.56
2022-12-03T02:55:18.494Z,101123.88
2022-12-03T02:57:51.172Z,101140.25
2022-12-03T03:00:20.879Z,101138.84
2022-12-03T03:02:49.687Z,101106.19
2022-12-03T03:05:22.126Z,101137.13
2022-12-03T03:07:51.716Z,101096.09
2022-12-03T03:10:23.233Z,101139.78
2022-12-03T03:12:55.329Z,101139.47
2022-12-03T03:15:24.707Z,101139.38
2022-12-03T03:17:53.159Z,101140.31
2022-12-03T03:20:21.461Z,101078.09
2022-12-03T03:22:49.509Z,101109.25
2022-12-03T03:25:22.518Z,101122.56
2022-12-03T03:27:52.119Z,101127.59
2022-12-03T03:30:20.281Z,101104.59
2022-12-03T03:32:50.778Z,101128.56
2022-12-03T03:35:18.971Z,101076.25
2022-12-03T03:37:47.199Z,101113.91
2022-12-03T03:40:15.313Z,101097.81
2022-12-03T03:42:43.409Z,101120.00
2022-12-03T03:45:13.032Z,101119.97
2022-12-03T03:47:42.034Z,101117.94
2022-12-03T03:50:13.575Z,101117.25
2022-12-03T03:52:42.681Z,101100.16
2022-12-03T03:55:12.202Z,101076.31
2022-12-03T03:57:40.895Z,101111.75
2022-12-03T04:00:10.360Z,101098.72
2022-12-03T04:02:39.880Z,101105.00
2022-12-03T04:05:09.021Z,101014.69
2022-12-03T04:07:37.334Z,101080.28
2022-12-03T04:10:26.500Z,101068.78
2022-12-03T04:12:57.043Z,101087.31
2022-12-03T04:15:25.450Z,101106.22
2022-12-03T04:18:13.505Z,101093.63
2022-12-03T04:20:43.046Z,101105.06
2022-12-03T04:23:10.190Z,101081.34
2022-12-03T04:25:55.958Z,101100.59
2022-12-03T04:28:41.228Z,101097.06
2022-12-03T04:31:23.169Z,100988.75
2022-12-03T04:34:10.422Z,101100.47
2022-12-03T04:36:38.814Z,101095.09
2022-12-03T04:39:07.432Z,101092.41
2022-12-03T04:41:35.512Z,101092.41
2022-12-03T04:44:20.702Z,101100.47
2022-12-03T04:46:48.666Z,101096.09
2022-12-03T04:49:18.435Z,101097.13
2022-12-03T04:51:46.426Z,101092.84
2022-12-03T04:54:14.613Z,101073.38
2022-12-03T04:56:42.731Z,101081.53
2022-12-03T04:59:15.940Z,100896.00
2022-12-03T05:01:44.942Z,101085.69
2022-12-03T05:04:13.579Z,101089.63
2022-12-03T05:06:43.490Z,100899.25
2022-12-03T05:09:12.213Z,101083.75
2022-12-03T05:11:40.773Z,101067.03
2022-12-03T05:14:09.566Z,101067.00
2022-12-03T05:16:38.101Z,101082.34
2022-12-03T05:19:11.557Z,101061.22
2022-12-03T05:21:38.673Z,101067.13
2022-12-03T05:24:08.943Z,100923.38
2022-12-03T05:26:37.408Z,101074.13
2022-12-03T05:29:05.490Z,100958.75
2022-12-03T05:31:33.667Z,101063.09
2022-12-03T05:34:01.678Z,101079.66
2022-12-03T05:36:29.714Z,101073.31
2022-12-03T05:38:57.815Z,101053.03
2022-12-03T05:41:44.836Z,101079.63
2022-12-03T05:44:18.889Z,101087.09
2022-12-03T05:46:48.397Z,101034.47
2022-12-03T05:49:16.487Z,101064.66
2022-12-03T05:51:50.562Z,101069.06
2022-12-03T05:54:24.904Z,101077.88
2022-12-03T05:56:54.671Z,101066.16
2022-12-03T05:59:22.652Z,101047.50
2022-12-03T06:01:50.668Z,100977.44
2022-12-03T06:04:18.611Z,101082.88
2022-12-03T06:06:46.909Z,101074.78
2022-12-03T06:09:21.180Z,101058.94
2022-12-03T06:11:53.487Z,100945.50
2022-12-03T06:14:23.251Z,101059.91
2022-12-03T06:16:51.187Z,101074.97
2022-12-03T06:19:19.369Z,101030.31
2022-12-03T06:21:47.425Z,101042.41
2022-12-03T06:24:15.616Z,101069.66
2022-12-03T06:26:43.620Z,101074.97
2022-12-03T06:29:11.569Z,101075.16
2022-12-03T06:31:41.021Z,101079.53
2022-12-03T06:34:09.326Z,101088.19
2022-12-03T06:36:37.472Z,101079.94
2022-12-03T06:39:05.504Z,101052.72
2022-12-03T06:41:33.561Z,101059.09
2022-12-03T06:44:01.580Z,101081.00
2022-12-03T06:46:30.245Z,101080.47
2022-12-03T06:49:02.275Z,101086.25
2022-12-03T06:51:30.464Z,101072.28
2022-12-03T06:53:58.464Z,101077.53
2022-12-03T06:56:32.796Z,100990.31
2022-12-03T06:59:03.925Z,101078.25
2022-12-03T07:01:31.981Z,101027.81
2022-12-03T07:04:01.533Z,101074.63
2022-12-03T07:06:29.537Z,101074.50
2022-12-03T07:08:57.543Z,101077.22
2022-12-03T07:11:40.149Z,100991.19
2022-12-03T07:14:11.373Z,101076.47
2022-12-03T07:16:43.281Z,101033.75
2022-12-03T07:19:13.938Z,101079.06
2022-12-03T07:21:42.235Z,101033.63
2022-12-03T07:24:12.677Z,101073.50
2022-12-03T07:26:40.773Z,100952.00
2022-12-03T07:29:09.278Z,101061.19
2022-12-03T07:31:37.395Z,101048.72
2022-12-03T07:34:05.577Z,101058.03
2022-12-03T07:36:35.168Z,101081.81
2022-12-03T07:39:03.376Z,101059.56
2022-12-03T07:41:32.237Z,100951.31
2022-12-03T07:44:00.336Z,101028.84
2022-12-03T07:46:28.560Z,101075.03
2022-12-03T07:48:56.978Z,101065.53
2022-12-03T07:51:30.616Z,101068.97
2022-12-03T07:54:01.853Z,101021.34
2022-12-03T07:56:30.059Z,101069.84
2022-12-03T07:58:58.481Z,101032.22
2022-12-03T08:01:26.702Z,101066.06
2022-12-03T08:03:55.120Z,101067.75
2022-12-03T08:06:23.138Z,101067.88
2022-12-03T08:08:51.525Z,101036.31
2022-12-03T08:11:21.216Z,101071.28
2022-12-03T08:13:51.499Z,101064.56
2022-12-03T08:16:21.450Z,101069.91
2022-12-03T08:18:49.921Z,101062.69
2022-12-03T08:21:19.762Z,101062.63
2022-12-03T08:23:48.165Z,101063.72
2022-12-03T08:26:26.304Z,101055.81
2022-12-03T08:28:54.583Z,101041.13
2022-12-03T08:31:32.228Z,101057.38
2022-12-03T08:34:15.022Z,101017.66
2022-12-03T08:36:43.340Z,101056.56
2022-12-03T08:39:28.299Z,101060.84
2022-12-03T08:42:28.252Z,101046.53
2022-12-03T08:44:56.837Z,101019.25
2022-12-03T08:47:26.722Z,101039.59
2022-12-03T08:49:58.258Z,100959.09
2022-12-03T08:52:32.873Z,101044.13
2022-12-03T08:55:04.095Z,101047.63
2022-12-03T08:57:35.804Z,101050.13
2022-12-03T09:00:19.662Z,100906.81
2022-12-03T09:02:50.560Z,101052.09
2022-12-03T09:05:21.944Z,101048.75
2022-12-03T09:07:52.758Z,100999.19
2022-12-03T09:10:21.261Z,100982.97
2022-12-03T09:12:50.674Z,101052.34
2022-12-03T09:15:18.998Z,101040.13
2022-12-03T09:17:47.153Z,101038.22
2022-12-03T09:20:15.264Z,100945.22
2022-12-03T09:22:43.365Z,101007.25
2022-12-03T09:25:12.004Z,101045.41
2022-12-03T09:27:40.042Z,101053.50
2022-12-03T09:30:11.469Z,101055.94
2022-12-03T09:32:39.573Z,101050.84
2022-12-03T09:35:09.124Z,101060.47
2022-12-03T09:37:37.552Z,101058.06
2022-12-03T09:40:07.983Z,101056.09
2022-12-03T09:42:36.227Z,101057.56
2022-12-03T09:45:06.894Z,101024.00
2022-12-03T09:47:36.691Z,101055.03
2022-12-03T09:50:07.783Z,101049.22
2022-12-03T09:52:40.108Z,101058.41
2022-12-03T09:55:14.999Z,101046.72
2022-12-03T09:57:43.097Z,101021.97
2022-12-03T10:00:19.050Z,100966.22
2022-12-03T10:02:49.972Z,101034.00
2022-12-03T10:05:23.921Z,101035.81
2022-12-03T10:07:53.235Z,101045.75
2022-12-03T10:10:25.479Z,101040.28
2022-12-03T10:12:54.956Z,101015.34
2022-12-03T10:15:25.544Z,101006.72
2022-12-03T10:17:56.443Z,101021.50
2022-12-03T10:20:26.775Z,101008.41
2022-12-03T10:22:57.544Z,101020.94
2022-12-03T10:25:25.981Z,100976.97
2022-12-03T10:27:59.903Z,100800.09
2022-12-03T10:30:29.785Z,101005.97
2022-12-03T10:33:02.842Z,100999.88
2022-12-03T10:35:39.598Z,100934.34
2022-12-03T10:38:19.977Z,100989.00
2022-12-03T10:40:48.103Z,100993.66
2022-12-03T10:43:21.654Z,100996.50
2022-12-03T10:45:51.562Z,100999.19
2022-12-03T10:48:25.551Z,100994.94
2022-12-03T10:50:55.777Z,100976.28
2022-12-03T10:53:28.412Z,100991.44
2022-12-03T10:55:59.816Z,100993.25
2022-12-03T10:58:30.108Z,100995.91
2022-12-03T11:00:58.687Z,100995.38
2022-12-03T11:03:31.673Z,100992.91
2022-12-03T11:06:02.498Z,100970.00
2022-12-03T11:08:34.234Z,100993.28
2022-12-03T11:11:04.721Z,100963.19
2022-12-03T11:13:51.732Z,100978.19
2022-12-03T11:17:09.097Z,100978.75
2022-12-03T11:19:47.935Z,100967.56
2022-12-03T11:22:44.628Z,100963.06
2022-12-03T11:25:50.609Z,100954.72
2022-12-03T11:28:36.424Z,100954.28
2022-12-03T11:31:12.180Z,100945.34
2022-12-03T11:33:44.066Z,100926.56
2022-12-03T11:36:27.802Z,100906.31
2022-12-03T11:39:05.041Z,100935.84
2022-12-03T11:41:36.183Z,100925.94
2022-12-03T11:44:28.292Z,100938.66
2022-12-03T11:46:58.542Z,100934.22
2022-12-03T11:49:36.663Z,100928.88
2022-12-03T11:52:21.937Z,100926.38
2022-12-03T11:54:53.125Z,100931.06
2022-12-03T11:57:27.825Z,100931.78
2022-12-03T12:00:00.731Z,100936.59
2022-12-03T12:02:29.067Z,100860.63
2022-12-03T12:04:57.684Z,100894.31
2022-12-03T12:07:37.807Z,100919.41
2022-12-03T12:10:06.368Z,100931.47
2022-12-03T12:12:39.251Z,100927.06
2022-12-03T12:15:35.698Z,100872.84
2022-12-03T12:18:39.430Z,100920.28
2022-12-03T12:21:47.837Z,100920.09
2022-12-03T12:24:46.947Z,100875.88
2022-12-03T12:27:17.471Z,100907.06
2022-12-03T12:29:51.594Z,100891.34
2022-12-03T12:32:23.141Z,100828.44
2022-12-03T12:34:53.461Z,100897.41
2022-12-03T12:37:23.909Z,100899.25
2022-12-03T12:39:57.918Z,100880.59
2022-12-03T12:42:32.854Z,100876.97
2022-12-03T12:45:18.344Z,100899.97
2022-12-03T12:47:51.053Z,100896.31
2022-12-03T12:50:20.716Z,100903.28
2022-12-03T12:52:52.568Z,100898.22
2022-12-03T12:55:24.021Z,100897.25
2022-12-03T12:57:54.189Z,100900.66
2022-12-03T13:00:23.595Z,100900.84
2022-12-03T13:02:55.800Z,100887.63
2022-12-03T13:05:27.853Z,100868.09
2022-12-03T13:07:57.490Z,100903.38
2022-12-03T13:10:39.943Z,100866.25
2022-12-03T13:13:24.707Z,100885.88
2022-12-03T13:16:00.113Z,100745.84
2022-12-03T13:18:34.029Z,100883.78
2022-12-03T13:21:18.260Z,100879.75
2022-12-03T13:23:46.756Z,100870.88
2022-12-03T13:26:36.060Z,100873.53
2022-12-03T13:29:13.561Z,100866.69
2022-12-03T13:31:44.631Z,100871.81
2022-12-03T13:34:20.815Z,100842.50
2022-12-03T13:36:57.018Z,100866.03
2022-12-03T13:39:31.938Z,100868.06
2022-12-03T13:42:38.051Z,100868.06
2022-12-03T13:45:30.801Z,100870.97
2022-12-03T13:48:02.034Z,100828.56
2022-12-03T13:50:36.067Z,100867.16
2022-12-03T13:53:14.953Z,100799.25
2022-12-03T13:55:47.341Z,100797.53
2022-12-03T13:58:17.097Z,100835.06
2022-12-03T14:00:45.348Z,100828.97
2022-12-03T14:03:13.487Z,100839.91
2022-12-03T14:05:41.676Z,100848.78
2022-12-03T14:08:10.280Z,100855.50
2022-12-03T14:10:38.449Z,100855.78
2022-12-03T14:13:06.585Z,100839.63
2022-12-03T14:15:36.286Z,100852.06
2022-12-03T14:18:04.686Z,100844.38
2022-12-03T14:20:34.487Z,100840.84
2022-12-03T14:23:02.502Z,100841.56
2022-12-03T14:25:30.804Z,100736.19
2022-12-03T14:28:23.843Z,100846.84
2022-12-03T14:30:55.355Z,100724.69
2022-12-03T14:33:23.556Z,100848.72
2022-12-03T14:35:54.308Z,100803.44
2022-12-03T14:38:22.659Z,100853.03
2022-12-03T14:40:50.833Z,100852.16
2022-12-03T14:43:18.971Z,100831.19
2022-12-03T14:45:47.004Z,100845.09
2022-12-03T14:48:16.433Z,100847.59
2022-12-03T14:50:44.558Z,100740.09
2022-12-03T14:53:12.584Z,100844.69
2022-12-03T14:55:40.555Z,100851.16
2022-12-03T14:58:08.591Z,100807.19
2022-12-03T15:00:36.504Z,100815.97
2022-12-03T15:03:04.632Z,100846.72
2022-12-03T15:05:34.116Z,100845.31
2022-12-03T15:08:02.456Z,100847.97
2022-12-03T15:10:30.489Z,100830.09
2022-12-03T15:12:58.506Z,100853.81
2022-12-03T15:15:26.617Z,100852.19
2022-12-03T15:17:55.554Z,100840.88
2022-12-03T15:20:23.968Z,100848.94
2022-12-03T15:22:53.747Z,100858.34
2022-12-03T15:25:25.509Z,100778.91
2022-12-03T15:27:53.729Z,100806.34
2022-12-03T15:30:21.934Z,100593.50
2022-12-03T15:32:50.000Z,100847.31
2022-12-03T15:35:18.824Z,100792.38
2022-12-03T15:37:46.833Z,100847.41
2022-12-03T15:40:16.223Z,100785.03
2022-12-03T15:42:44.133Z,100835.41
2022-12-03T15:45:15.324Z,100845.91
2022-12-03T15:47:43.728Z,100841.81
2022-12-03T15:50:13.151Z,100846.31
2022-12-03T15:52:41.392Z,100836.59
2022-12-03T15:55:10.608Z,100843.84
2022-12-03T15:57:40.029Z,100846.47
2022-12-03T16:00:09.892Z,100840.97
2022-12-03T16:02:40.931Z,100838.09
2022-12-03T16:05:11.830Z,100839.81
2022-12-03T16:07:40.330Z,100750.69
2022-12-03T16:10:10.574Z,100766.84
2022-12-03T16:12:40.010Z,100837.50
2022-12-03T16:15:08.801Z,100819.78
2022-12-03T16:17:36.745Z,100827.88
2022-12-03T16:20:05.512Z,100831.53
2022-12-03T16:22:33.561Z,100812.44
2022-12-03T16:25:01.698Z,100816.25
2022-12-03T16:27:29.669Z,100838.25
2022-12-03T16:29:59.005Z,100840.69
2022-12-03T16:32:27.170Z,100839.72
2022-12-03T16:34:55.240Z,100847.94
2022-12-03T16:37:23.348Z,100842.34
2022-12-03T16:39:52.095Z,100782.94
2022-12-03T16:42:20.291Z,100832.75
2022-12-03T16:45:06.097Z,100678.53
2022-12-03T16:47:36.005Z,100832.59
2022-12-03T16:50:04.866Z,100776.75
2022-12-03T16:52:33.300Z,100842.22
2022-12-03T16:55:01.583Z,100821.94
2022-12-03T16:57:33.606Z,100834.69
2022-12-03T17:00:01.962Z,100836.47
2022-12-03T17:02:30.402Z,100838.09
2022-12-03T17:05:15.160Z,100828.13
2022-12-03T17:07:43.193Z,100831.84
2022-12-03T17:10:12.441Z,100832.91
2022-12-03T17:13:07.656Z,100819.63
2022-12-03T17:15:28.917Z,100827.66
2022-12-03T17:17:56.866Z,100813.88
2022-12-03T17:20:26.310Z,100827.16
2022-12-03T17:22:54.199Z,100813.16
2022-12-03T17:25:22.430Z,100826.88
2022-12-03T17:27:50.614Z,100774.41
2022-12-03T17:30:19.286Z,100817.94
2022-12-03T17:32:48.732Z,100826.94
2022-12-03T17:35:17.257Z,100832.19
2022-12-03T17:37:47.043Z,100822.25
2022-12-03T17:40:17.245Z,100709.13
2022-12-03T17:42:45.120Z,100820.44
2022-12-03T17:45:13.659Z,100811.09
2022-12-03T17:47:41.934Z,100813.75
2022-12-03T17:50:10.903Z,100689.75
2022-12-03T17:52:38.942Z,100771.13
2022-12-03T17:55:12.224Z,100804.97
2022-12-03T17:57:42.698Z,100794.81
2022-12-03T18:00:11.829Z,100778.13
2022-12-03T18:02:43.346Z,100803.03
2022-12-03T18:05:11.878Z,100818.78
2022-12-03T18:07:40.147Z,100815.16
2022-12-03T18:10:09.998Z,100803.72
2022-12-03T18:12:38.284Z,100786.84
2022-12-03T18:15:06.916Z,100814.69
2022-12-03T18:17:35.296Z,100819.97
2022-12-03T18:20:04.307Z,100787.94
2022-12-03T18:22:32.620Z,100716.22
2022-12-03T18:25:00.929Z,100782.53
2022-12-03T18:27:30.396Z,100804.94
2022-12-03T18:29:58.822Z,100799.72
2022-12-03T18:32:29.320Z,100809.31
2022-12-03T18:34:58.357Z,100786.19
2022-12-03T18:37:28.484Z,100801.38
2022-12-03T18:39:58.154Z,100803.34
2022-12-03T18:42:26.647Z,100785.63
2022-12-03T18:44:57.906Z,100800.38
2022-12-03T18:47:29.082Z,100798.66
2022-12-03T18:49:57.829Z,100798.06
2022-12-03T18:52:26.042Z,100800.72
2022-12-03T18:54:55.308Z,100799.50
2022-12-03T18:57:23.424Z,100799.63
2022-12-03T18:59:51.824Z,100788.34
2022-12-03T19:05:11.133Z,100794.25
2022-12-03T19:07:39.378Z,100778.59
2022-12-03T19:10:09.034Z,100764.44
2022-12-03T19:12:37.589Z,100698.75
2022-12-03T19:15:07.236Z,100791.72
2022-12-03T19:17:39.317Z,100787.09
2022-12-03T19:20:11.431Z,100778.28
2022-12-03T19:22:39.673Z,100767.69
2022-12-03T19:25:08.115Z,100770.28
2022-12-03T19:27:36.104Z,100757.22
2022-12-03T19:30:04.681Z,100789.94
2022-12-03T19:32:32.722Z,100785.78
2022-12-03T19:35:04.958Z,100787.31
2022-12-03T19:37:33.840Z,100785.44
2022-12-03T19:40:01.977Z,100786.56
2022-12-03T19:42:31.152Z,100786.19
2022-12-03T19:44:59.139Z,100641.19
2022-12-03T19:47:27.209Z,100785.25
2022-12-03T19:49:55.758Z,100698.63
2022-12-03T19:52:25.590Z,100775.63
2022-12-03T19:54:53.684Z,100798.53
2022-12-03T19:57:23.654Z,100757.03
2022-12-03T19:59:52.197Z,100762.25
2022-12-03T20:02:20.456Z,100800.28
2022-12-03T20:04:48.545Z,100798.56
2022-12-03T20:07:16.516Z,100801.16
2022-12-03T20:09:46.048Z,100759.63
2022-12-03T20:12:14.217Z,100800.25
2022-12-03T20:14:42.388Z,100805.88
2022-12-03T20:17:10.365Z,100777.72
2022-12-03T20:19:38.505Z,100803.19
2022-12-03T20:22:06.902Z,100789.75
2022-12-03T20:24:34.998Z,100795.09
2022-12-03T20:27:04.738Z,100789.09
2022-12-03T20:29:32.810Z,100790.94
2022-12-03T20:32:01.192Z,100722.88
2022-12-03T20:34:29.300Z,100793.69
2022-12-03T20:36:57.466Z,100768.78
2022-12-03T20:39:25.537Z,100801.53
2022-12-03T20:41:53.693Z,100795.25
2022-12-03T20:44:23.143Z,100654.66
2022-12-03T20:46:51.107Z,100676.81
2022-12-03T20:49:19.360Z,100794.56
2022-12-03T20:51:47.482Z,100783.13
2022-12-03T20:54:15.514Z,100782.78
2022-12-03T20:56:43.570Z,100788.31
2022-12-03T20:59:13.668Z,100784.69
2022-12-03T21:01:43.904Z,100782.09
2022-12-03T21:04:14.661Z,100785.56
2022-12-03T21:06:43.364Z,100790.84
2022-12-03T21:09:12.785Z,100754.69
2022-12-03T21:11:42.633Z,100793.47
2022-12-03T21:14:12.405Z,100751.97
2022-12-03T21:17:07.450Z,100761.06
2022-12-03T21:19:34.843Z,100791.97
2022-12-03T21:22:02.822Z,100776.97
2022-12-03T21:24:31.016Z,100784.88
2022-12-03T21:26:59.169Z,100651.91
2022-12-03T21:29:27.128Z,100783.94
2022-12-03T21:31:56.573Z,100756.56
2022-12-03T21:34:24.682Z,100788.91
2022-12-03T21:36:52.664Z,100741.31
2022-12-03T21:39:20.683Z,100780.16
2022-12-03T21:42:18.791Z,100782.84
2022-12-03T21:44:38.419Z,100769.44
2022-12-03T21:47:13.959Z,100725.31
2022-12-03T21:49:43.096Z,100775.00
2022-12-03T21:52:11.306Z,100767.81
2022-12-03T21:54:39.383Z,100756.22
2022-12-03T21:57:07.295Z,100741.34
2022-12-03T21:59:35.345Z,100718.50
2022-12-03T22:02:03.782Z,100751.16
2022-12-03T22:04:33.346Z,100716.59
2022-12-03T22:07:01.298Z,100723.66
2022-12-03T22:09:29.296Z,100778.41
2022-12-03T22:12:00.790Z,100752.81
2022-12-03T22:14:29.530Z,100595.47
2022-12-03T22:16:57.690Z,100765.41
2022-12-03T22:19:26.623Z,100770.63
2022-12-03T22:21:56.254Z,100718.47
2022-12-03T22:24:24.836Z,100762.81
2022-12-03T22:26:54.736Z,100759.97
2022-12-03T22:29:23.006Z,100765.19
2022-12-03T22:31:51.242Z,100624.72
2022-12-03T22:34:19.445Z,100748.28
2022-12-03T22:36:47.410Z,100752.00
2022-12-03T22:39:16.878Z,100720.25
2022-12-03T22:41:45.077Z,100758.28
2022-12-03T22:44:13.058Z,100734.41
2022-12-03T22:46:41.261Z,100763.31
2022-12-03T22:49:09.296Z,100754.41
2022-12-03T22:51:37.381Z,100737.56
2022-12-03T22:54:06.559Z,100747.41
2022-12-03T22:56:36.098Z,100748.22
2022-12-03T22:59:05.033Z,100742.88
2022-12-03T23:01:35.581Z,100743.81
2022-12-03T23:04:04.331Z,100744.66
2022-12-03T23:06:34.343Z,100736.06
2022-12-03T23:09:02.774Z,100736.78
2022-12-03T23:11:30.827Z,100725.34
2022-12-03T23:14:00.649Z,100727.91
2022-12-03T23:16:30.948Z,100734.03
2022-12-03T23:18:59.924Z,100719.09
2022-12-03T23:21:30.901Z,100673.41
2022-12-03T23:23:59.625Z,100710.50
2022-12-03T23:26:28.038Z,100716.84
2022-12-03T23:28:56.299Z,100723.59
2022-12-03T23:31:28.295Z,100596.31
2022-12-03T23:33:57.779Z,100721.81
2022-12-03T23:36:27.495Z,100725.28
2022-12-03T23:38:56.029Z,100724.41
2022-12-03T23:41:25.517Z,100707.56
2022-12-03T23:43:53.700Z,100719.19
2022-12-03T23:46:24.277Z,100717.41
2022-12-03T23:48:54.037Z,100691.88
2022-12-03T23:51:25.013Z,100679.47
2022-12-03T23:53:53.941Z,100706.81
2022-12-03T23:56:23.788Z,100714.75
2022-12-03T23:58:52.355Z,100658.25
